Terminal Aerodrome Forecast
Issued by NWS Duluth, MN

Home | Current Version | Previous Version | Text Only | Print | Product List | Glossary On
Versions: 1 2 3 4 5 6 7 8 9 10 11 12 13 14 15 16 17
000
FTUS43 KDLH 300520
TAFDLH
TAF
KDLH 300520Z 3006/3106 07007KT P6SM OVC110
     FM301100 08005KT 4SM BR BKN010
     FM301500 08007KT P6SM SCT060
     FM301900 08012G18KT P6SM FEW130
     FM302200 08012KT P6SM BKN250=

USA.gov is the U.S. government's official web portal to all federal, state and local government web resources and services.